Merces, Brazil
Current Conditions -  °F | °C
As of 11:00 AM on Saturday 20 Dec 2014 (Local Time) from SBBQ Reporting Station
Scattered Clouds Scattered Clouds  
Wind Chill: 77°   Ceiling: Unl
Heat Index: 79°   Visibility: 6mi
Dew Point: 64°   Wind: 10mph
Humidity: 65%   Direction: 300°WNW
Pressure: 30.12"   Gusts: NA
Location:  21.19°S, 43.34°W
Report Text: SBBQ 201300Z 30009KT 9999 SCT025 25/18 Q1020
Loading
Personal Weather Stations






























Interactive Weather Map New forecast layout! Learn more

10-Day Weather Forecast

Advertisements
Track Severe Weather on mobile